Hackett, Arkansas
Current Conditions -  °F | °C
As of 12:53 AM on Sunday 21 Dec 2014 (Local Time) from KFSM Reporting Station
Overcast Overcast  
Wind Chill: 43°   Ceiling: 2900
Heat Index: 45°   Visibility: 7mi
Dew Point: 40°   Wind: 5mph
Humidity: 82%   Direction: 60°ENE
Pressure: 30.18"   Gusts: NA
Location:  35.19°N, 94.41°W
Report Text: KFSM 210653Z AUTO 06004KT 7SM OVC029 07/04 A3018 RMK AO2 SLP222 T00720044
Loading
Personal Weather Stations






























Interactive Weather Map New forecast layout! Learn more

10-Day Weather Forecast

Advertisements
Track Severe Weather on mobile